Terminal Aerodrome Forecast
Issued by NWS

Home | Current Version | Previous Version | Text Only | Print | Product List | Glossary On
Versions: 1 2 3 4 5 6 7 8 9 10 11 12 13 14 15 16 17 18 19
542
FTUS41 KCLE 170646 AAA
TAFFDY
TAF AMD
KFDY 170646Z 1707/1806 24006KT P6SM SCT010
      TEMPO 1707/1711 OVC014
     FM171200 25010KT P6SM BKN035
     FM171900 25012KT P6SM SCT035=

USA.gov is the U.S. government's official web portal to all federal, state and local government web resources and services.